Time;durP1;ratioP1;P1;durP2;ratioP2;P2;SDS_P1;SDS_P2;PMS_P1;PMS_P2;Temp;Humidity;BMP_temperature;BMP_pressure;BME280_temperature;BME280_humidity;BME280_pressure;Samples;Min_cycle;Max_cycle;Signal;HPM_P1;HPM_P2
2022/06/30 00:07:02;;;;;;;8.02;4.53;;;;;;;19.70;100.00;99928.41;20823812;28;20048;-70
2022/06/30 00:17:05;;;;;;;7.43;4.43;;;;;;;19.65;100.00;99924.34;20812728;28;20124;-71
2022/06/30 00:27:07;;;;;;;8.88;4.40;;;;;;;19.47;100.00;99920.94;20813606;28;20076;-71
2022/06/30 00:37:08;;;;;;;6.38;4.30;;;;;;;19.33;100.00;99921.78;20802577;28;20056;-71
2022/06/30 00:47:10;;;;;;;8.02;4.25;;;;;;;19.17;100.00;99907.72;20738953;28;20061;-71
2022/06/30 00:57:14;;;;;;;5.97;4.25;;;;;;;19.10;100.00;99907.19;20738709;28;20092;-71
2022/06/30 01:07:17;;;;;;;9.02;4.90;;;;;;;18.94;100.00;99901.09;20737628;28;20062;-71
2022/06/30 01:17:20;;;;;;;6.82;4.38;;;;;;;18.78;100.00;99913.50;20737556;28;20050;-70
2022/06/30 01:27:21;;;;;;;8.20;4.82;;;;;;;18.49;100.00;99913.34;20736011;28;20410;-71
2022/06/30 01:37:24;;;;;;;6.40;4.80;;;;;;;18.44;100.00;99912.75;20736142;28;20042;-71
2022/06/30 01:47:26;;;;;;;9.35;5.10;;;;;;;18.26;100.00;99919.09;20735865;28;20053;-71
2022/06/30 01:57:27;;;;;;;9.77;5.18;;;;;;;18.20;100.00;99909.66;20736033;28;20442;-70
2022/06/30 02:07:29;;;;;;;7.53;4.88;;;;;;;18.12;100.00;99907.44;20735196;28;20178;-71
2022/06/30 02:17:30;;;;;;;7.82;5.82;;;;;;;18.12;100.00;99912.75;20735470;28;20057;-70
2022/06/30 02:27:32;;;;;;;8.55;5.28;;;;;;;18.11;100.00;99899.56;20734910;28;20050;-69
2022/06/30 02:37:34;;;;;;;7.63;5.75;;;;;;;18.02;100.00;99903.59;20734360;28;20514;-70
2022/06/30 02:47:37;;;;;;;9.45;5.40;;;;;;;17.90;100.00;99902.44;20744448;28;20060;-70
2022/06/30 02:57:39;;;;;;;8.68;5.43;;;;;;;17.90;100.00;99886.56;20748212;28;20046;-69
2022/06/30 03:07:40;;;;;;;7.75;5.18;;;;;;;17.82;100.00;99895.84;20747187;28;20049;-69
2022/06/30 03:17:42;;;;;;;9.13;5.18;;;;;;;17.67;100.00;99903.63;20746723;28;20053;-71
2022/06/30 03:27:43;;;;;;;8.60;5.30;;;;;;;17.54;100.00;99909.69;20745410;28;20088;-70
2022/06/30 03:37:46;;;;;;;7.88;5.72;;;;;;;17.49;100.00;99917.84;20743830;28;20045;-70
2022/06/30 03:47:47;;;;;;;9.82;6.05;;;;;;;17.53;100.00;99922.03;20742866;28;20057;-70
2022/06/30 03:57:49;;;;;;;8.75;5.07;;;;;;;17.63;100.00;99907.41;20741964;28;20053;-70
2022/06/30 04:07:51;;;;;;;7.07;5.30;;;;;;;17.61;100.00;99905.75;20741576;28;20057;-70
2022/06/30 04:17:52;;;;;;;8.00;5.82;;;;;;;17.75;100.00;99907.72;20741624;28;20101;-70
2022/06/30 04:27:56;;;;;;;10.52;5.55;;;;;;;17.97;100.00;99910.09;20827524;23;20107;-78
2022/06/30 04:37:58;;;;;;;9.40;5.00;;;;;;;19.66;100.00;99889.69;20824476;28;20071;-78
2022/06/30 04:48:00;;;;;;;15.27;5.25;;;;;;;21.46;100.00;99905.53;20825240;28;20053;-77
2022/06/30 04:58:01;;;;;;;6.13;4.40;;;;;;;21.11;100.00;99895.44;20823222;28;20057;-77
2022/06/30 05:08:03;;;;;;;7.20;4.40;;;;;;;20.09;100.00;99896.81;20821999;28;20041;-78
2022/06/30 05:18:05;;;;;;;6.88;3.92;;;;;;;20.08;100.00;99898.63;20822462;28;20468;-78
2022/06/30 05:28:07;;;;;;;8.18;4.97;;;;;;;20.34;100.00;99888.13;20822727;28;20045;-78
2022/06/30 05:38:08;;;;;;;7.32;4.50;;;;;;;20.60;100.00;99884.66;20807805;28;20132;-77
2022/06/30 05:48:10;;;;;;;8.32;4.45;;;;;;;20.87;100.00;99859.84;20822409;28;20085;-77
2022/06/30 05:58:16;;;;;;;7.07;4.68;;;;;;;21.03;100.00;99849.84;20802979;28;20049;-78
2022/06/30 06:08:17;;;;;;;10.13;4.70;;;;;;;21.20;100.00;99859.38;20823750;28;20526;-78
2022/06/30 06:18:19;;;;;;;9.40;4.50;;;;;;;21.44;100.00;99856.84;20861251;28;20172;-80
2022/06/30 06:38:40;;;;;;;8.60;4.55;;;;;;;21.80;100.00;99877.44;20841522;28;20045;-77
2022/06/30 06:48:42;;;;;;;9.77;4.65;;;;;;;22.00;100.00;99876.00;20851342;28;20055;-77
2022/06/30 06:58:44;;;;;;;7.80;4.07;;;;;;;22.32;100.00;99876.34;20872980;28;20107;-78
2022/06/30 07:08:45;;;;;;;8.10;4.30;;;;;;;22.74;100.00;99876.84;20862439;28;20036;-77
2022/06/30 07:18:47;;;;;;;8.85;4.53;;;;;;;23.12;100.00;99875.81;20864066;28;20414;-77
2022/06/30 07:28:48;;;;;;;7.85;4.93;;;;;;;23.24;96.65;99865.03;20841948;28;20050;-78
2022/06/30 07:38:53;;;;;;;8.88;4.63;;;;;;;23.50;91.93;99859.50;20847485;28;20041;-78
2022/06/30 07:48:54;;;;;;;9.77;4.13;;;;;;;24.01;87.46;99856.38;20734429;28;20442;-77
2022/06/30 07:58:56;;;;;;;9.07;3.53;;;;;;;24.37;81.54;99855.25;20739266;28;20537;-78
2022/06/30 08:08:58;;;;;;;10.20;3.55;;;;;;;24.78;78.31;99842.94;20747150;28;20128;-78
2022/06/30 08:18:59;;;;;;;6.05;3.38;;;;;;;24.93;80.01;99847.00;20896480;28;20056;-77
2022/06/30 08:29:01;;;;;;;8.02;2.75;;;;;;;25.17;77.99;99820.00;20882040;28;20056;-76
2022/06/30 08:39:03;;;;;;;9.00;3.47;;;;;;;25.70;77.99;99824.34;20898559;28;20041;-77
2022/06/30 08:49:05;;;;;;;10.15;3.90;;;;;;;25.82;80.01;99818.81;20899728;28;20052;-76
2022/06/30 08:59:07;;;;;;;6.18;3.13;;;;;;;26.20;76.00;99811.81;20901020;28;20045;-77
2022/06/30 09:09:09;;;;;;;4.97;2.80;;;;;;;26.60;70.57;99800.19;20880525;28;20041;-78
2022/06/30 09:19:11;;;;;;;8.23;3.50;;;;;;;26.95;66.92;99796.03;20817632;28;20045;-78
2022/06/30 09:29:14;;;;;;;8.70;3.10;;;;;;;27.32;68.64;99794.28;20814499;28;20449;-77
2022/06/30 09:39:41;;;;;;;6.15;2.55;;;;;;;27.75;61.38;99776.75;20815956;28;20050;-77
2022/06/30 09:49:45;;;;;;;7.22;2.60;;;;;;;28.27;59.47;99768.06;20818470;28;20053;-77
2022/06/30 09:59:57;;;;;;;5.28;3.15;;;;;;;28.72;59.38;99750.97;20836848;28;20133;-78
2022/06/30 10:09:58;;;;;;;6.13;2.88;;;;;;;28.67;52.20;99751.44;20842868;28;20297;-79
2022/06/30 10:20:01;;;;;;;6.55;3.00;;;;;;;28.44;52.24;99744.84;20937227;28;20048;-79
2022/06/30 10:30:09;;;;;;;6.97;3.00;;;;;;;28.35;52.63;99731.31;20910169;28;20056;-78
2022/06/30 10:40:42;;;;;;;7.70;3.42;;;;;;;27.98;52.70;99738.63;20910672;28;20438;-79
2022/06/30 10:50:43;;;;;;;6.15;2.60;;;;;;;28.83;53.89;99729.16;20907377;28;20052;-79
2022/06/30 11:00:48;;;;;;;7.23;2.50;;;;;;;29.10;46.59;99728.19;20889107;28;20101;-81
2022/06/30 11:10:50;;;;;;;4.55;2.60;;;;;;;29.77;45.19;99713.00;20859707;28;20045;-79
2022/06/30 11:20:52;;;;;;;5.22;2.70;;;;;;;29.99;42.86;99703.47;20820467;28;20054;-78
2022/06/30 11:30:54;;;;;;;4.85;3.03;;;;;;;29.31;44.55;99688.19;20832655;28;20049;-77
2022/06/30 11:41:54;;;;;;;5.80;2.80;;;;;;;29.42;44.81;99686.22;20831330;28;20490;-77
2022/06/30 11:51:17;;;;;;;5.00;2.53;;;;;;;29.78;46.03;99676.91;20891670;23;20046;-78
2022/06/30 12:01:19;;;;;;;4.82;2.72;;;;;;;30.11;43.54;99664.31;20834106;28;20045;-78
2022/06/30 12:11:29;;;;;;;4.97;2.80;;;;;;;29.55;41.98;99657.78;20901061;28;20045;-78
2022/06/30 12:21:32;;;;;;;5.43;2.70;;;;;;;29.92;45.37;99643.03;20900860;28;20492;-79
2022/06/30 12:31:34;;;;;;;5.30;2.92;;;;;;;29.62;47.71;99631.03;20898668;28;20048;-78
2022/06/30 12:41:36;;;;;;;7.32;2.92;;;;;;;29.63;44.09;99630.00;20898502;28;20048;-78
2022/06/30 12:51:41;;;;;;;6.07;3.00;;;;;;;29.63;43.72;99632.69;20898263;28;20052;-78
2022/06/30 13:01:44;;;;;;;7.35;3.10;;;;;;;29.92;42.48;99636.81;20897323;28;20063;-79
2022/06/30 13:11:54;;;;;;;6.80;2.78;;;;;;;29.98;42.92;99609.13;20896892;28;20522;-79
2022/06/30 13:21:56;;;;;;;7.65;2.90;;;;;;;30.32;41.02;99601.72;20898055;28;20052;-77
2022/06/30 13:32:05;;;;;;;6.00;2.88;;;;;;;30.19;42.40;99601.41;20907827;28;20663;-78
2022/06/30 13:42:07;;;;;;;6.93;2.80;;;;;;;30.50;41.88;99581.78;20890243;28;20050;-79
2022/06/30 13:52:08;;;;;;;7.53;3.30;;;;;;;30.33;43.62;99560.22;20810945;28;20046;-79
2022/06/30 14:02:10;;;;;;;5.53;2.83;;;;;;;30.45;40.28;99557.13;20813455;28;20053;-80
2022/06/30 14:12:12;;;;;;;6.00;3.35;;;;;;;30.65;40.33;99553.00;20834810;28;20601;-79
2022/06/30 14:22:15;;;;;;;5.60;3.20;;;;;;;30.53;41.59;99541.75;20893847;28;20045;-79
2022/06/30 14:32:17;;;;;;;;;;;;;;;30.96;40.68;99527.94;20892783;28;20044;-78
2022/06/30 14:52:59;;;;;;;6.60;3.20;;;;;;;30.87;38.98;99509.03;20685282;28;20064;-80
2022/06/30 15:03:00;;;;;;;7.67;2.90;;;;;;;30.83;39.59;99513.13;20826625;28;20053;-78
2022/06/30 15:13:02;;;;;;;5.10;3.20;;;;;;;31.30;38.83;99514.91;20825547;28;20085;-80
2022/06/30 15:33:24;;;;;;;8.20;3.20;;;;;;;31.59;40.86;99491.72;20822677;28;20049;-79
2022/06/30 15:43:25;;;;;;;7.10;2.80;;;;;;;31.44;38.17;99490.81;20821745;28;20053;-78
2022/06/30 15:53:27;;;;;;;7.22;3.28;;;;;;;31.20;45.08;99508.88;20819896;28;20056;-77
2022/06/30 16:03:28;;;;;;;5.43;2.60;;;;;;;30.92;41.91;99501.25;20822514;28;20076;-77
2022/06/30 16:13:30;;;;;;;8.27;2.83;;;;;;;31.01;41.21;99514.72;20819367;28;20079;-79
2022/06/30 16:23:33;;;;;;;5.23;3.07;;;;;;;31.02;42.98;99505.59;20817199;28;20140;-79
2022/06/30 16:33:35;;;;;;;4.85;2.42;;;;;;;30.73;45.03;99501.69;20817573;28;20052;-77
2022/06/30 16:43:40;;;;;;;4.68;2.50;;;;;;;30.46;46.40;99507.50;20816504;28;20140;-77
2022/06/30 16:53:42;;;;;;;4.57;2.60;;;;;;;30.21;47.76;99533.72;20816538;28;20045;-77
2022/06/30 17:03:44;;;;;;;4.30;2.70;;;;;;;29.72;49.07;99529.19;20814160;28;20053;-78
2022/06/30 17:13:47;;;;;;;5.60;2.40;;;;;;;29.45;49.12;99559.97;20812335;28;20049;-78
2022/06/30 17:23:49;;;;;;;8.70;3.50;;;;;;;29.03;51.65;99582.41;20844690;28;20509;-78
2022/06/30 17:33:51;;;;;;;7.72;2.60;;;;;;;26.10;70.63;99714.34;20915648;28;20175;-77
2022/06/30 17:43:52;;;;;;;11.77;2.42;;;;;;;24.02;87.65;99743.06;20909450;28;20059;-77
2022/06/30 17:53:54;;;;;;;8.75;2.42;;;;;;;23.51;95.66;99724.91;20914831;28;20136;-77
2022/06/30 18:03:55;;;;;;;6.10;2.65;;;;;;;21.77;100.00;99752.38;20902496;28;20045;-78
2022/06/30 18:13:57;;;;;;;7.55;3.47;;;;;;;21.24;100.00;99776.50;20908215;28;20053;-79
2022/06/30 18:23:58;;;;;;;5.95;2.80;;;;;;;21.43;100.00;99738.81;20930928;28;20091;-78
2022/06/30 18:34:00;;;;;;;9.00;3.47;;;;;;;21.29;100.00;99746.06;20919407;28;20048;-78
2022/06/30 18:44:22;;;;;;;7.05;4.13;;;;;;;20.67;100.00;99731.66;20935413;28;20044;-78
2022/06/30 18:54:23;;;;;;;7.47;3.58;;;;;;;21.35;100.00;99758.97;20904181;28;20117;-78
2022/06/30 19:04:25;;;;;;;6.55;3.80;;;;;;;21.58;100.00;99831.94;20919867;28;20498;-78
2022/06/30 19:14:27;;;;;;;12.38;4.60;;;;;;;21.20;100.00;99862.88;20923269;28;20051;-78
2022/06/30 19:24:29;;;;;;;7.68;3.55;;;;;;;20.75;100.00;99926.22;20904879;28;20131;-78
2022/06/30 19:34:30;;;;;;;8.48;2.60;;;;;;;20.07;100.00;100003.19;20913464;28;20143;-78
2022/06/30 19:44:32;;;;;;;7.20;2.53;;;;;;;19.85;100.00;100038.22;20920733;28;20052;-78
2022/06/30 19:54:34;;;;;;;8.93;2.72;;;;;;;19.06;100.00;100046.31;20930873;28;20045;-79
2022/06/30 20:14:57;;;;;;;3.25;1.08;;;;;;;18.75;100.00;100128.53;20921727;28;20040;-79
2022/06/30 20:24:59;;;;;;;3.60;1.40;;;;;;;18.71;100.00;100155.22;20914934;28;20055;-78
2022/06/30 20:35:02;;;;;;;4.22;1.25;;;;;;;18.71;100.00;100197.66;20907037;28;20060;-78
2022/06/30 20:45:04;;;;;;;3.55;1.38;;;;;;;18.67;100.00;100198.72;20928787;28;20087;-78
2022/06/30 20:55:07;;;;;;;3.40;1.20;;;;;;;18.49;100.00;100210.28;20899149;28;20662;-79
2022/06/30 21:05:10;;;;;;;4.95;1.17;;;;;;;18.01;100.00;100211.81;20896741;28;20048;-80
2022/06/30 21:15:12;;;;;;;5.47;1.25;;;;;;;18.09;100.00;100245.88;20917649;28;20132;-80
2022/06/30 21:25:13;;;;;;;2.00;1.13;;;;;;;17.90;100.00;100238.84;20904195;28;20053;-79
2022/06/30 21:35:15;;;;;;;2.05;0.90;;;;;;;17.77;100.00;100279.22;20917055;28;20124;-79
2022/06/30 21:45:16;;;;;;;2.63;0.88;;;;;;;17.47;100.00;100308.81;20908860;28;20051;-79
2022/06/30 21:55:18;;;;;;;1.73;0.80;;;;;;;17.50;100.00;100345.75;20907830;28;20498;-78
2022/06/30 22:05:19;;;;;;;4.15;1.08;;;;;;;17.44;100.00;100349.53;20910482;28;20139;-78
2022/06/30 22:15:21;;;;;;;2.90;1.10;;;;;;;17.33;100.00;100367.66;20907467;28;20055;-79
2022/06/30 22:25:22;;;;;;;4.00;0.73;;;;;;;17.09;100.00;100337.84;20893336;28;20087;-78
2022/06/30 22:35:24;;;;;;;2.85;0.70;;;;;;;17.00;100.00;100340.88;20913560;28;20107;-78
2022/06/30 22:45:25;;;;;;;2.00;0.57;;;;;;;17.18;100.00;100393.00;20895678;28;20053;-78
2022/06/30 22:55:27;;;;;;;2.97;0.30;;;;;;;16.80;100.00;100410.50;20891341;28;20136;-78
2022/06/30 23:05:28;;;;;;;4.40;0.82;;;;;;;16.61;100.00;100410.34;20921725;28;20124;-78
2022/06/30 23:15:30;;;;;;;4.88;0.60;;;;;;;16.65;100.00;100408.44;20924534;28;20052;-78
2022/06/30 23:25:31;;;;;;;1.50;0.52;;;;;;;16.70;100.00;100424.97;20922977;28;20136;-78
2022/06/30 23:35:34;;;;;;;1.83;0.47;;;;;;;16.85;100.00;100447.31;20918680;28;20067;-78
2022/06/30 23:45:35;;;;;;;1.63;0.50;;;;;;;16.70;100.00;100424.97;20913641;28;20049;-78
2022/06/30 23:55:37;;;;;;;1.92;0.60;;;;;;;16.68;100.00;100448.00;20914305;28;20429;-77
